createdAt,value
2022-11-14T00:02:32.730Z,0.41
2022-11-14T00:08:24.688Z,0.47
2022-11-14T00:14:07.708Z,0.57
2022-11-14T00:19:50.681Z,0.76
2022-11-14T00:25:37.702Z,1.05
2022-11-14T00:31:21.771Z,1.00
2022-11-14T00:37:04.724Z,0.87
2022-11-14T00:42:51.717Z,0.80
2022-11-14T00:48:34.749Z,0.77
2022-11-14T00:54:17.729Z,0.86
2022-11-14T01:00:09.702Z,0.98
2022-11-14T01:05:55.712Z,1.14
2022-11-14T01:11:38.717Z,1.35
2022-11-14T01:17:24.721Z,1.45
2022-11-14T01:23:07.712Z,1.44
2022-11-14T01:28:52.012Z,1.33
2022-11-14T01:34:38.736Z,1.16
2022-11-14T01:40:22.720Z,1.09
2022-11-14T01:46:11.729Z,1.06
2022-11-14T01:52:01.701Z,1.14
2022-11-14T01:57:47.747Z,1.08
2022-11-14T02:03:30.741Z,0.97
2022-11-14T02:09:18.733Z,0.92
2022-11-14T02:15:05.779Z,0.84
2022-11-14T02:20:55.068Z,0.85
2022-11-14T02:26:38.755Z,0.96
2022-11-14T02:32:22.760Z,0.85
2022-11-14T02:38:08.761Z,0.71
2022-11-14T02:43:52.741Z,0.52
2022-11-14T02:49:35.974Z,0.36
2022-11-14T02:55:22.737Z,0.17
2022-11-14T03:01:20.967Z,0.11
2022-11-14T03:07:04.832Z,0.03
2022-11-14T03:12:50.774Z,-0.10
2022-11-14T03:18:33.754Z,-0.05
2022-11-14T03:24:16.766Z,-0.04
2022-11-14T03:30:02.785Z,0.01
2022-11-14T03:35:45.768Z,-0.04
2022-11-14T03:41:28.751Z,-0.20
2022-11-14T03:47:14.766Z,-0.27
2022-11-14T03:52:58.773Z,-0.28
2022-11-14T03:58:41.760Z,-0.31
2022-11-14T04:04:28.159Z,-0.32
2022-11-14T04:10:10.785Z,-0.35
2022-11-14T04:15:53.811Z,-0.38
2022-11-14T04:21:39.888Z,-0.45
2022-11-14T04:27:23.763Z,-0.48
2022-11-14T04:33:06.774Z,-0.49
2022-11-14T04:38:52.797Z,-0.52
2022-11-14T04:44:35.775Z,-0.63
2022-11-14T04:50:21.163Z,-0.67
2022-11-14T04:56:06.785Z,-0.70
2022-11-14T05:01:55.870Z,-0.71
2022-11-14T05:07:38.828Z,-0.72
2022-11-14T05:13:23.787Z,-0.80
2022-11-14T05:19:06.804Z,-0.81
2022-11-14T05:24:49.803Z,-0.76
2022-11-14T05:30:35.857Z,-0.65
2022-11-14T05:36:19.829Z,-0.59
2022-11-14T05:42:03.084Z,-0.59
2022-11-14T05:47:48.879Z,-0.60
2022-11-14T05:53:31.888Z,-0.64
2022-11-14T05:59:14.869Z,-0.67
2022-11-14T06:05:00.831Z,-0.66
2022-11-14T06:10:43.988Z,-0.62
2022-11-14T06:16:28.839Z,-0.39
2022-11-14T06:22:14.854Z,0.12
2022-11-14T06:27:57.900Z,0.40
2022-11-14T06:33:41.867Z,0.56
2022-11-14T06:39:28.877Z,0.69
2022-11-14T06:45:12.846Z,0.96
2022-11-14T06:51:01.864Z,1.23
2022-11-14T06:56:46.869Z,1.56
2022-11-14T07:02:36.070Z,1.71
2022-11-14T07:08:21.227Z,1.83
2022-11-14T07:14:07.887Z,1.93
2022-11-14T07:19:50.895Z,2.03
2022-11-14T07:25:33.889Z,2.17
2022-11-14T07:31:21.887Z,2.32
2022-11-14T07:37:04.855Z,2.47
2022-11-14T07:42:47.870Z,2.66
2022-11-14T07:48:36.857Z,2.78
2022-11-14T07:54:20.864Z,2.97
2022-11-14T08:00:03.911Z,3.15
2022-11-14T08:05:50.887Z,3.26
2022-11-14T08:11:46.914Z,3.37
2022-11-14T08:17:30.004Z,3.48
2022-11-14T08:23:20.912Z,3.61
2022-11-14T08:29:04.910Z,3.72
2022-11-14T08:34:47.928Z,3.86
2022-11-14T08:40:34.912Z,4.00
2022-11-14T08:46:19.926Z,4.12
2022-11-14T08:52:02.929Z,4.29
2022-11-14T08:57:49.839Z,4.40
2022-11-14T09:03:39.040Z,4.59
2022-11-14T09:09:21.928Z,4.69
2022-11-14T09:15:06.929Z,4.66
2022-11-14T09:20:51.117Z,4.77
2022-11-14T09:26:33.917Z,5.01
2022-11-14T09:32:19.901Z,5.25
2022-11-14T09:38:02.937Z,5.44
2022-11-14T09:44:03.911Z,5.80
2022-11-14T09:49:53.949Z,6.11
2022-11-14T09:55:38.930Z,6.45
2022-11-14T10:01:40.000Z,6.80
2022-11-14T10:07:37.979Z,7.15
2022-11-14T10:13:33.208Z,7.64
2022-11-14T10:19:30.657Z,8.01
2022-11-14T10:25:44.003Z,8.18
2022-11-14T10:31:37.956Z,8.49
2022-11-14T10:37:31.956Z,8.79
2022-11-14T10:43:30.970Z,9.00
2022-11-14T10:49:15.947Z,9.32
2022-11-14T10:55:06.995Z,9.49
2022-11-14T11:00:59.009Z,9.67
2022-11-14T11:06:42.957Z,9.85
2022-11-14T11:12:32.048Z,10.02
2022-11-14T11:18:35.201Z,10.13
2022-11-14T11:24:17.975Z,10.29
2022-11-14T11:30:15.217Z,10.45
2022-11-14T11:36:05.986Z,10.57
2022-11-14T11:42:08.738Z,10.80
2022-11-14T11:47:53.990Z,10.93
2022-11-14T11:53:45.008Z,11.16
2022-11-14T11:59:43.007Z,11.34
2022-11-14T12:05:32.990Z,11.52
2022-11-14T12:11:21.022Z,11.63
2022-11-14T12:17:24.999Z,11.76
2022-11-14T12:23:43.981Z,11.84
2022-11-14T12:29:54.078Z,12.00
2022-11-14T12:35:39.986Z,12.22
2022-11-14T12:41:34.012Z,12.40
2022-11-14T12:47:35.015Z,12.58
2022-11-14T12:53:49.000Z,12.67
2022-11-14T12:59:45.029Z,12.98
2022-11-14T13:05:54.043Z,13.24
2022-11-14T13:12:09.180Z,13.43
2022-11-14T13:18:16.040Z,13.65
2022-11-14T13:24:16.070Z,13.50
2022-11-14T13:29:59.085Z,13.63
2022-11-14T13:36:12.077Z,13.49
2022-11-14T13:42:31.310Z,13.19
2022-11-14T13:48:42.501Z,13.07
2022-11-14T13:54:28.086Z,13.01
2022-11-14T14:00:26.049Z,13.03
2022-11-14T14:06:22.287Z,13.00
2022-11-14T14:12:34.109Z,12.85
2022-11-14T14:18:32.370Z,13.02
2022-11-14T14:24:28.087Z,13.16
2022-11-14T14:30:17.123Z,13.30
2022-11-14T14:36:09.086Z,13.37
2022-11-14T14:41:52.098Z,13.25
2022-11-14T14:47:49.091Z,13.21
2022-11-14T14:53:37.077Z,12.95
2022-11-14T14:59:32.102Z,12.66
2022-11-14T15:05:16.117Z,12.35
2022-11-14T15:11:02.072Z,12.05
2022-11-14T15:16:45.088Z,11.66
2022-11-14T15:22:42.110Z,11.31
2022-11-14T15:28:31.393Z,11.07
2022-11-14T15:34:20.109Z,10.64
2022-11-14T15:40:03.165Z,10.41
2022-11-14T15:45:56.129Z,10.21
2022-11-14T15:51:54.106Z,9.98
2022-11-14T15:57:37.136Z,9.81
2022-11-14T16:03:27.203Z,9.65
2022-11-14T16:09:11.172Z,9.48
2022-11-14T16:14:55.129Z,9.36
2022-11-14T16:20:46.146Z,9.13
2022-11-14T16:26:29.167Z,8.98
2022-11-14T16:32:12.127Z,8.82
2022-11-14T16:37:58.143Z,8.68
2022-11-14T16:43:41.150Z,8.56
2022-11-14T16:49:28.467Z,8.42
2022-11-14T16:55:14.128Z,8.29
2022-11-14T17:00:57.266Z,8.22
2022-11-14T17:06:40.144Z,8.18
2022-11-14T17:12:26.185Z,8.10
2022-11-14T17:18:09.205Z,8.04
2022-11-14T17:23:58.234Z,8.01
2022-11-14T17:29:44.174Z,7.97
2022-11-14T17:35:29.376Z,7.91
2022-11-14T17:46:36.216Z,7.75
2022-11-14T17:52:20.175Z,7.66
2022-11-14T17:58:03.233Z,7.58
2022-11-14T18:04:01.627Z,7.49
2022-11-14T18:09:49.230Z,7.49
2022-11-14T18:15:34.775Z,7.46
2022-11-14T18:21:23.271Z,7.45
2022-11-14T18:27:08.575Z,7.46
2022-11-14T18:32:51.444Z,7.40
2022-11-14T18:38:37.209Z,7.37
2022-11-14T18:44:22.194Z,7.42
2022-11-14T18:50:06.212Z,7.49
2022-11-14T18:55:52.222Z,7.46
2022-11-14T19:01:38.318Z,7.42
2022-11-14T19:07:22.675Z,7.35
2022-11-14T19:13:07.255Z,7.32
2022-11-14T19:18:50.186Z,7.31
2022-11-14T19:24:34.207Z,7.28
2022-11-14T19:30:21.204Z,7.25
2022-11-14T19:36:05.230Z,7.18
2022-11-14T19:41:48.455Z,7.11
2022-11-14T19:47:34.332Z,7.09
2022-11-14T19:53:17.236Z,7.09
2022-11-14T19:59:03.315Z,7.08
2022-11-14T20:04:57.254Z,7.07
2022-11-14T20:10:54.291Z,7.02
2022-11-14T20:16:39.220Z,7.03
2022-11-14T20:22:26.254Z,7.06
2022-11-14T20:28:09.255Z,7.03
2022-11-14T20:33:57.343Z,7.01
2022-11-14T20:39:45.262Z,7.07
2022-11-14T20:45:29.302Z,7.11
2022-11-14T20:51:24.272Z,7.08
2022-11-14T20:57:11.267Z,7.03
2022-11-14T21:03:02.240Z,6.97
2022-11-14T21:08:45.254Z,6.83
2022-11-14T21:14:31.301Z,6.73
2022-11-14T21:20:15.265Z,6.69
2022-11-14T21:25:58.342Z,6.60
2022-11-14T21:31:46.318Z,6.51
2022-11-14T21:37:29.312Z,6.42
2022-11-14T21:43:12.262Z,6.35
2022-11-14T21:48:58.280Z,6.30
2022-11-14T21:54:41.302Z,6.31
2022-11-14T22:00:26.325Z,6.30
2022-11-14T22:11:35.297Z,6.19
2022-11-14T22:17:18.285Z,6.18
2022-11-14T22:23:01.283Z,6.19
2022-11-14T22:28:47.301Z,6.19
2022-11-14T22:34:30.373Z,6.19
2022-11-14T22:40:14.304Z,6.22
2022-11-14T22:46:07.307Z,6.25
2022-11-14T22:51:51.320Z,6.23
2022-11-14T22:57:34.356Z,6.23
2022-11-14T23:03:31.916Z,6.19
2022-11-14T23:09:14.371Z,6.17
2022-11-14T23:14:57.340Z,6.14
2022-11-14T23:20:43.335Z,6.10
2022-11-14T23:26:28.332Z,6.08
2022-11-14T23:32:11.645Z,6.06
2022-11-14T23:37:57.313Z,6.07
2022-11-14T23:43:46.348Z,6.09
2022-11-14T23:49:29.330Z,6.09
2022-11-14T23:55:14.330Z,6.10
